sensor_id;sensor_type;location;lat;lon;timestamp;P1;durP1;ratioP1;P2;durP2;ratioP2
65658;SDS011;60181;53.258;6.932;2023-06-14T00:00:59;6.20;;;2.30;;
65658;SDS011;60181;53.258;6.932;2023-06-14T00:05:04;6.20;;;2.30;;
65658;SDS011;60181;53.258;6.932;2023-06-14T00:09:07;7.20;;;2.30;;
65658;SDS011;60181;53.258;6.932;2023-06-14T00:13:11;7.20;;;2.30;;
65658;SDS011;60181;53.258;6.932;2023-06-14T00:17:15;7.20;;;2.30;;
65658;SDS011;60181;53.258;6.932;2023-06-14T00:21:19;12.40;;;2.20;;
65658;SDS011;60181;53.258;6.932;2023-06-14T00:25:23;12.40;;;2.20;;
65658;SDS011;60181;53.258;6.932;2023-06-14T00:29:27;11.20;;;2.50;;
65658;SDS011;60181;53.258;6.932;2023-06-14T00:33:31;11.20;;;2.50;;
65658;SDS011;60181;53.258;6.932;2023-06-14T00:37:35;7.00;;;2.20;;
65658;SDS011;60181;53.258;6.932;2023-06-14T00:41:39;7.00;;;2.20;;
65658;SDS011;60181;53.258;6.932;2023-06-14T00:45:43;7.00;;;2.20;;
65658;SDS011;60181;53.258;6.932;2023-06-14T00:49:48;4.30;;;2.10;;
65658;SDS011;60181;53.258;6.932;2023-06-14T00:53:51;4.30;;;2.10;;
65658;SDS011;60181;53.258;6.932;2023-06-14T00:57:55;8.40;;;2.20;;
65658;SDS011;60181;53.258;6.932;2023-06-14T01:01:59;8.40;;;2.20;;
65658;SDS011;60181;53.258;6.932;2023-06-14T01:06:13;8.40;;;2.20;;
65658;SDS011;60181;53.258;6.932;2023-06-14T01:14:11;6.40;;;2.20;;
65658;SDS011;60181;53.258;6.932;2023-06-14T01:18:15;9.20;;;2.50;;
65658;SDS011;60181;53.258;6.932;2023-06-14T01:22:19;9.20;;;2.50;;
65658;SDS011;60181;53.258;6.932;2023-06-14T01:26:23;9.20;;;2.50;;
65658;SDS011;60181;53.258;6.932;2023-06-14T01:30:27;4.90;;;2.50;;
65658;SDS011;60181;53.258;6.932;2023-06-14T01:34:31;4.90;;;2.50;;
65658;SDS011;60181;53.258;6.932;2023-06-14T01:38:35;13.40;;;2.80;;
65658;SDS011;60181;53.258;6.932;2023-06-14T01:42:39;13.40;;;2.80;;
65658;SDS011;60181;53.258;6.932;2023-06-14T01:46:43;13.40;;;2.80;;
65658;SDS011;60181;53.258;6.932;2023-06-14T01:50:48;8.20;;;2.70;;
65658;SDS011;60181;53.258;6.932;2023-06-14T01:54:51;8.20;;;2.70;;
65658;SDS011;60181;53.258;6.932;2023-06-14T01:58:55;7.40;;;2.50;;
65658;SDS011;60181;53.258;6.932;2023-06-14T02:02:59;7.40;;;2.50;;
65658;SDS011;60181;53.258;6.932;2023-06-14T02:07:03;7.40;;;2.50;;
65658;SDS011;60181;53.258;6.932;2023-06-14T02:11:07;7.40;;;2.70;;
65658;SDS011;60181;53.258;6.932;2023-06-14T02:15:11;7.40;;;2.70;;
65658;SDS011;60181;53.258;6.932;2023-06-14T02:19:16;7.20;;;2.70;;
65658;SDS011;60181;53.258;6.932;2023-06-14T02:23:19;7.20;;;2.70;;
65658;SDS011;60181;53.258;6.932;2023-06-14T02:27:23;7.20;;;2.70;;
65658;SDS011;60181;53.258;6.932;2023-06-14T02:31:27;7.00;;;3.10;;
65658;SDS011;60181;53.258;6.932;2023-06-14T02:35:31;7.00;;;3.10;;
65658;SDS011;60181;53.258;6.932;2023-06-14T02:39:35;8.30;;;2.90;;
65658;SDS011;60181;53.258;6.932;2023-06-14T02:43:39;8.30;;;2.90;;
65658;SDS011;60181;53.258;6.932;2023-06-14T02:47:43;7.40;;;3.00;;
65658;SDS011;60181;53.258;6.932;2023-06-14T02:51:47;7.40;;;3.00;;
65658;SDS011;60181;53.258;6.932;2023-06-14T02:55:51;7.40;;;3.00;;
65658;SDS011;60181;53.258;6.932;2023-06-14T02:59:55;9.00;;;3.10;;
65658;SDS011;60181;53.258;6.932;2023-06-14T03:04:02;9.00;;;3.10;;
65658;SDS011;60181;53.258;6.932;2023-06-14T03:08:03;8.20;;;2.90;;
65658;SDS011;60181;53.258;6.932;2023-06-14T03:12:07;8.20;;;2.90;;
65658;SDS011;60181;53.258;6.932;2023-06-14T03:16:11;8.20;;;2.90;;
65658;SDS011;60181;53.258;6.932;2023-06-14T03:20:15;7.40;;;3.30;;
65658;SDS011;60181;53.258;6.932;2023-06-14T03:24:19;7.40;;;3.30;;
65658;SDS011;60181;53.258;6.932;2023-06-14T03:28:23;9.10;;;3.00;;
65658;SDS011;60181;53.258;6.932;2023-06-14T03:32:27;9.10;;;3.00;;
65658;SDS011;60181;53.258;6.932;2023-06-14T03:36:31;9.10;;;3.00;;
65658;SDS011;60181;53.258;6.932;2023-06-14T03:40:35;9.20;;;3.30;;
65658;SDS011;60181;53.258;6.932;2023-06-14T03:44:39;9.20;;;3.30;;
65658;SDS011;60181;53.258;6.932;2023-06-14T03:48:43;8.10;;;3.20;;
65658;SDS011;60181;53.258;6.932;2023-06-14T03:52:50;8.10;;;3.20;;
65658;SDS011;60181;53.258;6.932;2023-06-14T03:56:51;8.10;;;3.20;;
65658;SDS011;60181;53.258;6.932;2023-06-14T04:00:55;8.30;;;3.10;;
65658;SDS011;60181;53.258;6.932;2023-06-14T04:04:59;8.30;;;3.10;;
65658;SDS011;60181;53.258;6.932;2023-06-14T04:09:03;8.80;;;3.50;;
65658;SDS011;60181;53.258;6.932;2023-06-14T04:13:07;8.80;;;3.50;;
65658;SDS011;60181;53.258;6.932;2023-06-14T04:17:11;8.80;;;3.50;;
65658;SDS011;60181;53.258;6.932;2023-06-14T04:21:15;10.50;;;3.20;;
65658;SDS011;60181;53.258;6.932;2023-06-14T04:25:19;10.50;;;3.20;;
65658;SDS011;60181;53.258;6.932;2023-06-14T04:29:23;11.50;;;3.60;;
65658;SDS011;60181;53.258;6.932;2023-06-14T04:33:27;11.50;;;3.60;;
65658;SDS011;60181;53.258;6.932;2023-06-14T04:37:31;11.10;;;3.80;;
65658;SDS011;60181;53.258;6.932;2023-06-14T04:41:35;11.10;;;3.80;;
65658;SDS011;60181;53.258;6.932;2023-06-14T04:45:39;11.10;;;3.80;;
65658;SDS011;60181;53.258;6.932;2023-06-14T04:49:43;13.10;;;4.00;;
65658;SDS011;60181;53.258;6.932;2023-06-14T04:53:47;13.10;;;4.00;;
65658;SDS011;60181;53.258;6.932;2023-06-14T04:57:51;9.70;;;3.90;;
65658;SDS011;60181;53.258;6.932;2023-06-14T05:01:55;9.70;;;3.90;;
65658;SDS011;60181;53.258;6.932;2023-06-14T05:05:59;9.70;;;3.90;;
65658;SDS011;60181;53.258;6.932;2023-06-14T05:10:03;10.90;;;4.10;;
65658;SDS011;60181;53.258;6.932;2023-06-14T05:14:07;10.90;;;4.10;;
65658;SDS011;60181;53.258;6.932;2023-06-14T05:18:11;9.20;;;3.90;;
65658;SDS011;60181;53.258;6.932;2023-06-14T05:22:15;9.20;;;3.90;;
65658;SDS011;60181;53.258;6.932;2023-06-14T05:26:19;9.20;;;3.90;;
65658;SDS011;60181;53.258;6.932;2023-06-14T05:30:23;10.80;;;3.90;;
65658;SDS011;60181;53.258;6.932;2023-06-14T05:34:27;10.80;;;3.90;;
65658;SDS011;60181;53.258;6.932;2023-06-14T05:38:31;9.00;;;3.90;;
65658;SDS011;60181;53.258;6.932;2023-06-14T05:42:35;9.00;;;3.90;;
65658;SDS011;60181;53.258;6.932;2023-06-14T05:46:39;9.00;;;3.90;;
65658;SDS011;60181;53.258;6.932;2023-06-14T05:50:43;12.30;;;4.10;;
65658;SDS011;60181;53.258;6.932;2023-06-14T05:54:47;12.30;;;4.10;;
65658;SDS011;60181;53.258;6.932;2023-06-14T05:58:51;11.20;;;4.20;;
65658;SDS011;60181;53.258;6.932;2023-06-14T06:02:55;11.20;;;4.20;;
65658;SDS011;60181;53.258;6.932;2023-06-14T06:06:59;11.20;;;4.20;;
65658;SDS011;60181;53.258;6.932;2023-06-14T06:11:03;10.10;;;4.30;;
65658;SDS011;60181;53.258;6.932;2023-06-14T06:15:07;10.10;;;4.30;;
65658;SDS011;60181;53.258;6.932;2023-06-14T06:19:11;10.70;;;4.00;;
65658;SDS011;60181;53.258;6.932;2023-06-14T06:23:15;10.70;;;4.00;;
65658;SDS011;60181;53.258;6.932;2023-06-14T06:27:19;10.70;;;4.00;;
65658;SDS011;60181;53.258;6.932;2023-06-14T06:31:23;12.30;;;4.20;;
65658;SDS011;60181;53.258;6.932;2023-06-14T06:35:27;12.30;;;4.20;;
65658;SDS011;60181;53.258;6.932;2023-06-14T06:39:31;12.10;;;4.00;;
65658;SDS011;60181;53.258;6.932;2023-06-14T06:43:35;12.10;;;4.00;;
65658;SDS011;60181;53.258;6.932;2023-06-14T06:47:39;10.30;;;4.00;;
65658;SDS011;60181;53.258;6.932;2023-06-14T06:51:43;10.30;;;4.00;;
65658;SDS011;60181;53.258;6.932;2023-06-14T06:55:47;10.30;;;4.00;;
65658;SDS011;60181;53.258;6.932;2023-06-14T06:59:51;12.20;;;3.70;;
65658;SDS011;60181;53.258;6.932;2023-06-14T07:03:55;12.20;;;3.70;;
65658;SDS011;60181;53.258;6.932;2023-06-14T07:08:00;11.50;;;4.30;;
65658;SDS011;60181;53.258;6.932;2023-06-14T07:12:03;11.50;;;4.30;;
65658;SDS011;60181;53.258;6.932;2023-06-14T07:16:07;11.50;;;4.30;;
65658;SDS011;60181;53.258;6.932;2023-06-14T07:20:11;11.40;;;4.40;;
65658;SDS011;60181;53.258;6.932;2023-06-14T07:24:15;11.40;;;4.40;;
65658;SDS011;60181;53.258;6.932;2023-06-14T07:28:19;9.80;;;4.30;;
65658;SDS011;60181;53.258;6.932;2023-06-14T07:32:23;9.80;;;4.30;;
65658;SDS011;60181;53.258;6.932;2023-06-14T07:36:27;9.80;;;4.30;;
65658;SDS011;60181;53.258;6.932;2023-06-14T07:40:31;12.10;;;4.20;;
65658;SDS011;60181;53.258;6.932;2023-06-14T07:44:35;12.10;;;4.20;;
65658;SDS011;60181;53.258;6.932;2023-06-14T07:48:39;10.10;;;3.90;;
65658;SDS011;60181;53.258;6.932;2023-06-14T07:52:43;10.10;;;3.90;;
65658;SDS011;60181;53.258;6.932;2023-06-14T07:56:47;10.10;;;3.90;;
65658;SDS011;60181;53.258;6.932;2023-06-14T08:00:51;10.40;;;3.90;;
65658;SDS011;60181;53.258;6.932;2023-06-14T08:04:55;10.40;;;3.90;;
65658;SDS011;60181;53.258;6.932;2023-06-14T08:08:59;16.50;;;3.90;;
65658;SDS011;60181;53.258;6.932;2023-06-14T08:13:03;16.50;;;3.90;;
65658;SDS011;60181;53.258;6.932;2023-06-14T08:17:07;16.50;;;3.90;;
65658;SDS011;60181;53.258;6.932;2023-06-14T08:21:11;9.10;;;3.70;;
65658;SDS011;60181;53.258;6.932;2023-06-14T08:25:15;9.10;;;3.70;;
65658;SDS011;60181;53.258;6.932;2023-06-14T08:29:19;9.50;;;3.40;;
65658;SDS011;60181;53.258;6.932;2023-06-14T08:33:23;9.50;;;3.40;;
65658;SDS011;60181;53.258;6.932;2023-06-14T08:37:27;7.50;;;3.40;;
65658;SDS011;60181;53.258;6.932;2023-06-14T08:41:31;7.50;;;3.40;;
65658;SDS011;60181;53.258;6.932;2023-06-14T08:45:35;7.50;;;3.40;;
65658;SDS011;60181;53.258;6.932;2023-06-14T08:49:39;5.80;;;3.20;;
65658;SDS011;60181;53.258;6.932;2023-06-14T08:53:43;5.80;;;3.20;;
65658;SDS011;60181;53.258;6.932;2023-06-14T08:57:47;5.90;;;3.20;;
65658;SDS011;60181;53.258;6.932;2023-06-14T09:01:51;5.90;;;3.20;;
65658;SDS011;60181;53.258;6.932;2023-06-14T09:05:57;5.90;;;3.20;;
65658;SDS011;60181;53.258;6.932;2023-06-14T09:10:06;7.20;;;3.00;;
65658;SDS011;60181;53.258;6.932;2023-06-14T09:14:03;7.20;;;3.00;;
65658;SDS011;60181;53.258;6.932;2023-06-14T09:18:07;6.60;;;3.10;;
65658;SDS011;60181;53.258;6.932;2023-06-14T09:22:11;6.60;;;3.10;;
65658;SDS011;60181;53.258;6.932;2023-06-14T09:26:15;6.60;;;3.10;;
65658;SDS011;60181;53.258;6.932;2023-06-14T09:30:20;7.00;;;3.20;;
65658;SDS011;60181;53.258;6.932;2023-06-14T09:34:23;7.00;;;3.20;;
65658;SDS011;60181;53.258;6.932;2023-06-14T09:38:27;7.30;;;2.80;;
65658;SDS011;60181;53.258;6.932;2023-06-14T09:42:31;7.30;;;2.80;;
65658;SDS011;60181;53.258;6.932;2023-06-14T09:46:35;7.30;;;2.80;;
65658;SDS011;60181;53.258;6.932;2023-06-14T09:50:39;5.20;;;2.50;;
65658;SDS011;60181;53.258;6.932;2023-06-14T09:54:43;5.20;;;2.50;;
65658;SDS011;60181;53.258;6.932;2023-06-14T09:58:47;4.90;;;2.70;;
65658;SDS011;60181;53.258;6.932;2023-06-14T10:02:55;4.90;;;2.70;;
65658;SDS011;60181;53.258;6.932;2023-06-14T10:06:55;4.90;;;2.70;;
65658;SDS011;60181;53.258;6.932;2023-06-14T10:10:59;4.10;;;2.50;;
65658;SDS011;60181;53.258;6.932;2023-06-14T10:15:03;4.10;;;2.50;;
65658;SDS011;60181;53.258;6.932;2023-06-14T10:23:16;3.40;;;2.20;;
65658;SDS011;60181;53.258;6.932;2023-06-14T10:27:15;3.40;;;2.20;;
65658;SDS011;60181;53.258;6.932;2023-06-14T10:31:18;3.60;;;2.50;;
65658;SDS011;60181;53.258;6.932;2023-06-14T10:35:22;3.60;;;2.50;;
65658;SDS011;60181;53.258;6.932;2023-06-14T10:39:26;4.20;;;2.70;;
65658;SDS011;60181;53.258;6.932;2023-06-14T10:43:31;4.20;;;2.70;;
65658;SDS011;60181;53.258;6.932;2023-06-14T10:47:35;3.60;;;2.30;;
65658;SDS011;60181;53.258;6.932;2023-06-14T10:51:42;3.60;;;2.30;;
65658;SDS011;60181;53.258;6.932;2023-06-14T10:55:42;3.60;;;2.30;;
65658;SDS011;60181;53.258;6.932;2023-06-14T10:59:46;5.10;;;2.50;;
65658;SDS011;60181;53.258;6.932;2023-06-14T11:03:51;5.10;;;2.50;;
65658;SDS011;60181;53.258;6.932;2023-06-14T11:08:07;3.50;;;2.40;;
65658;SDS011;60181;53.258;6.932;2023-06-14T11:11:58;3.50;;;2.40;;
65658;SDS011;60181;53.258;6.932;2023-06-14T11:16:03;3.50;;;2.40;;
65658;SDS011;60181;53.258;6.932;2023-06-14T11:20:07;3.70;;;2.50;;
65658;SDS011;60181;53.258;6.932;2023-06-14T11:24:10;3.70;;;2.50;;
65658;SDS011;60181;53.258;6.932;2023-06-14T11:28:14;4.80;;;2.50;;
65658;SDS011;60181;53.258;6.932;2023-06-14T11:32:18;4.80;;;2.50;;
65658;SDS011;60181;53.258;6.932;2023-06-14T11:36:23;4.80;;;2.50;;
65658;SDS011;60181;53.258;6.932;2023-06-14T11:40:27;5.40;;;2.30;;
65658;SDS011;60181;53.258;6.932;2023-06-14T11:44:31;5.40;;;2.30;;
65658;SDS011;60181;53.258;6.932;2023-06-14T11:48:38;3.50;;;2.30;;
65658;SDS011;60181;53.258;6.932;2023-06-14T11:52:38;3.50;;;2.30;;
65658;SDS011;60181;53.258;6.932;2023-06-14T11:56:42;3.50;;;2.30;;
65658;SDS011;60181;53.258;6.932;2023-06-14T12:00:48;4.60;;;2.30;;
65658;SDS011;60181;53.258;6.932;2023-06-14T12:04:50;4.60;;;2.30;;
65658;SDS011;60181;53.258;6.932;2023-06-14T12:08:57;3.60;;;2.30;;
65658;SDS011;60181;53.258;6.932;2023-06-14T12:12:58;3.60;;;2.30;;
65658;SDS011;60181;53.258;6.932;2023-06-14T12:17:06;3.60;;;2.30;;
65658;SDS011;60181;53.258;6.932;2023-06-14T12:21:07;3.50;;;2.20;;
65658;SDS011;60181;53.258;6.932;2023-06-14T12:25:11;3.50;;;2.20;;
65658;SDS011;60181;53.258;6.932;2023-06-14T12:29:14;4.50;;;2.10;;
65658;SDS011;60181;53.258;6.932;2023-06-14T12:33:18;4.50;;;2.10;;
65658;SDS011;60181;53.258;6.932;2023-06-14T12:37:22;4.50;;;2.10;;
65658;SDS011;60181;53.258;6.932;2023-06-14T12:41:26;4.30;;;2.40;;
65658;SDS011;60181;53.258;6.932;2023-06-14T12:45:30;4.30;;;2.40;;
65658;SDS011;60181;53.258;6.932;2023-06-14T12:49:34;3.60;;;2.00;;
65658;SDS011;60181;53.258;6.932;2023-06-14T12:53:38;3.60;;;2.00;;
65658;SDS011;60181;53.258;6.932;2023-06-14T12:57:42;4.10;;;2.10;;
65658;SDS011;60181;53.258;6.932;2023-06-14T13:01:46;4.10;;;2.10;;
65658;SDS011;60181;53.258;6.932;2023-06-14T13:05:50;4.10;;;2.10;;
65658;SDS011;60181;53.258;6.932;2023-06-14T13:09:54;3.60;;;2.20;;
65658;SDS011;60181;53.258;6.932;2023-06-14T13:13:58;3.60;;;2.20;;
65658;SDS011;60181;53.258;6.932;2023-06-14T13:18:02;2.70;;;1.90;;
65658;SDS011;60181;53.258;6.932;2023-06-14T13:22:06;2.70;;;1.90;;
65658;SDS011;60181;53.258;6.932;2023-06-14T13:26:10;2.70;;;1.90;;
65658;SDS011;60181;53.258;6.932;2023-06-14T13:30:14;3.10;;;1.90;;
65658;SDS011;60181;53.258;6.932;2023-06-14T13:34:18;3.10;;;1.90;;
65658;SDS011;60181;53.258;6.932;2023-06-14T13:38:22;2.70;;;2.10;;
65658;SDS011;60181;53.258;6.932;2023-06-14T13:42:27;2.70;;;2.10;;
65658;SDS011;60181;53.258;6.932;2023-06-14T13:46:30;2.70;;;2.10;;
65658;SDS011;60181;53.258;6.932;2023-06-14T13:50:34;2.90;;;2.00;;
65658;SDS011;60181;53.258;6.932;2023-06-14T13:54:38;2.90;;;2.00;;
65658;SDS011;60181;53.258;6.932;2023-06-14T13:58:42;3.90;;;2.10;;
65658;SDS011;60181;53.258;6.932;2023-06-14T14:02:46;3.90;;;2.10;;
65658;SDS011;60181;53.258;6.932;2023-06-14T14:06:50;3.90;;;2.10;;
65658;SDS011;60181;53.258;6.932;2023-06-14T14:10:54;3.30;;;2.10;;
65658;SDS011;60181;53.258;6.932;2023-06-14T14:14:58;3.30;;;2.10;;
65658;SDS011;60181;53.258;6.932;2023-06-14T14:19:02;4.40;;;2.10;;
65658;SDS011;60181;53.258;6.932;2023-06-14T14:23:06;4.40;;;2.10;;
65658;SDS011;60181;53.258;6.932;2023-06-14T14:27:10;4.40;;;2.10;;
65658;SDS011;60181;53.258;6.932;2023-06-14T14:31:14;3.00;;;2.00;;
65658;SDS011;60181;53.258;6.932;2023-06-14T14:35:18;3.00;;;2.00;;
65658;SDS011;60181;53.258;6.932;2023-06-14T14:39:22;3.20;;;2.10;;
65658;SDS011;60181;53.258;6.932;2023-06-14T14:43:26;3.20;;;2.10;;
65658;SDS011;60181;53.258;6.932;2023-06-14T14:47:30;2.80;;;1.90;;
65658;SDS011;60181;53.258;6.932;2023-06-14T14:51:34;2.80;;;1.90;;
65658;SDS011;60181;53.258;6.932;2023-06-14T14:55:38;2.80;;;1.90;;
65658;SDS011;60181;53.258;6.932;2023-06-14T14:59:42;3.00;;;2.10;;
65658;SDS011;60181;53.258;6.932;2023-06-14T15:03:46;3.00;;;2.10;;
65658;SDS011;60181;53.258;6.932;2023-06-14T15:07:50;2.50;;;2.00;;
65658;SDS011;60181;53.258;6.932;2023-06-14T15:11:54;2.50;;;2.00;;
65658;SDS011;60181;53.258;6.932;2023-06-14T15:15:58;2.50;;;2.00;;
65658;SDS011;60181;53.258;6.932;2023-06-14T15:20:02;3.20;;;2.10;;
65658;SDS011;60181;53.258;6.932;2023-06-14T15:24:07;3.20;;;2.10;;
65658;SDS011;60181;53.258;6.932;2023-06-14T15:28:10;3.40;;;2.10;;
65658;SDS011;60181;53.258;6.932;2023-06-14T15:32:14;3.40;;;2.10;;
65658;SDS011;60181;53.258;6.932;2023-06-14T15:36:18;3.40;;;2.10;;
65658;SDS011;60181;53.258;6.932;2023-06-14T15:40:22;5.20;;;2.20;;
65658;SDS011;60181;53.258;6.932;2023-06-14T15:44:26;5.20;;;2.20;;
65658;SDS011;60181;53.258;6.932;2023-06-14T15:48:30;3.20;;;2.10;;
65658;SDS011;60181;53.258;6.932;2023-06-14T15:52:34;3.20;;;2.10;;
65658;SDS011;60181;53.258;6.932;2023-06-14T15:56:38;3.20;;;2.10;;
65658;SDS011;60181;53.258;6.932;2023-06-14T16:00:42;3.50;;;2.40;;
65658;SDS011;60181;53.258;6.932;2023-06-14T16:04:46;3.50;;;2.40;;
65658;SDS011;60181;53.258;6.932;2023-06-14T16:08:50;3.00;;;2.20;;
65658;SDS011;60181;53.258;6.932;2023-06-14T16:12:54;3.00;;;2.20;;
65658;SDS011;60181;53.258;6.932;2023-06-14T16:16:58;3.00;;;2.20;;
65658;SDS011;60181;53.258;6.932;2023-06-14T16:21:02;3.60;;;2.40;;
65658;SDS011;60181;53.258;6.932;2023-06-14T16:25:06;3.60;;;2.40;;
65658;SDS011;60181;53.258;6.932;2023-06-14T16:29:10;4.50;;;2.30;;
65658;SDS011;60181;53.258;6.932;2023-06-14T16:33:14;4.50;;;2.30;;
65658;SDS011;60181;53.258;6.932;2023-06-14T16:37:18;4.50;;;2.30;;
65658;SDS011;60181;53.258;6.932;2023-06-14T16:41:22;3.00;;;2.30;;
65658;SDS011;60181;53.258;6.932;2023-06-14T16:45:26;3.00;;;2.30;;
65658;SDS011;60181;53.258;6.932;2023-06-14T16:49:30;4.40;;;2.50;;
65658;SDS011;60181;53.258;6.932;2023-06-14T16:53:34;4.40;;;2.50;;
65658;SDS011;60181;53.258;6.932;2023-06-14T16:57:38;4.20;;;2.50;;
65658;SDS011;60181;53.258;6.932;2023-06-14T17:01:42;4.20;;;2.50;;
65658;SDS011;60181;53.258;6.932;2023-06-14T17:05:55;4.20;;;2.50;;
65658;SDS011;60181;53.258;6.932;2023-06-14T17:09:50;2.90;;;2.30;;
65658;SDS011;60181;53.258;6.932;2023-06-14T17:13:54;2.90;;;2.30;;
65658;SDS011;60181;53.258;6.932;2023-06-14T17:17:58;3.70;;;2.60;;
65658;SDS011;60181;53.258;6.932;2023-06-14T17:22:02;3.70;;;2.60;;
65658;SDS011;60181;53.258;6.932;2023-06-14T17:26:06;3.70;;;2.60;;
65658;SDS011;60181;53.258;6.932;2023-06-14T17:30:10;3.90;;;2.30;;
65658;SDS011;60181;53.258;6.932;2023-06-14T17:34:14;3.90;;;2.30;;
65658;SDS011;60181;53.258;6.932;2023-06-14T17:38:18;4.10;;;2.60;;
65658;SDS011;60181;53.258;6.932;2023-06-14T17:42:22;4.10;;;2.60;;
65658;SDS011;60181;53.258;6.932;2023-06-14T17:46:26;4.10;;;2.60;;
65658;SDS011;60181;53.258;6.932;2023-06-14T17:50:30;5.60;;;2.90;;
65658;SDS011;60181;53.258;6.932;2023-06-14T17:54:34;5.60;;;2.90;;
65658;SDS011;60181;53.258;6.932;2023-06-14T17:58:38;6.20;;;3.50;;
65658;SDS011;60181;53.258;6.932;2023-06-14T18:02:42;6.20;;;3.50;;
65658;SDS011;60181;53.258;6.932;2023-06-14T18:06:46;6.20;;;3.50;;
65658;SDS011;60181;53.258;6.932;2023-06-14T18:10:50;7.70;;;4.90;;
65658;SDS011;60181;53.258;6.932;2023-06-14T18:14:54;7.70;;;4.90;;
65658;SDS011;60181;53.258;6.932;2023-06-14T18:18:58;10.20;;;5.70;;
65658;SDS011;60181;53.258;6.932;2023-06-14T18:23:02;10.20;;;5.70;;
65658;SDS011;60181;53.258;6.932;2023-06-14T18:27:06;10.20;;;5.70;;
65658;SDS011;60181;53.258;6.932;2023-06-14T18:31:10;11.10;;;6.80;;
65658;SDS011;60181;53.258;6.932;2023-06-14T18:35:14;11.10;;;6.80;;
65658;SDS011;60181;53.258;6.932;2023-06-14T18:39:18;11.40;;;6.50;;
65658;SDS011;60181;53.258;6.932;2023-06-14T18:43:22;11.40;;;6.50;;
65658;SDS011;60181;53.258;6.932;2023-06-14T18:47:26;12.60;;;7.30;;
65658;SDS011;60181;53.258;6.932;2023-06-14T18:51:30;12.60;;;7.30;;
65658;SDS011;60181;53.258;6.932;2023-06-14T18:55:34;12.60;;;7.30;;
65658;SDS011;60181;53.258;6.932;2023-06-14T18:59:38;12.20;;;7.50;;
65658;SDS011;60181;53.258;6.932;2023-06-14T19:03:42;12.20;;;7.50;;
65658;SDS011;60181;53.258;6.932;2023-06-14T19:07:46;13.40;;;7.30;;
65658;SDS011;60181;53.258;6.932;2023-06-14T19:11:50;13.40;;;7.30;;
65658;SDS011;60181;53.258;6.932;2023-06-14T19:15:54;13.40;;;7.30;;
65658;SDS011;60181;53.258;6.932;2023-06-14T19:19:58;12.20;;;7.20;;
65658;SDS011;60181;53.258;6.932;2023-06-14T19:24:02;12.20;;;7.20;;
65658;SDS011;60181;53.258;6.932;2023-06-14T19:28:06;13.00;;;7.50;;
65658;SDS011;60181;53.258;6.932;2023-06-14T19:32:10;13.00;;;7.50;;
65658;SDS011;60181;53.258;6.932;2023-06-14T19:36:14;13.00;;;7.50;;
65658;SDS011;60181;53.258;6.932;2023-06-14T19:40:18;13.00;;;7.20;;
65658;SDS011;60181;53.258;6.932;2023-06-14T19:44:22;13.00;;;7.20;;
65658;SDS011;60181;53.258;6.932;2023-06-14T19:48:26;13.00;;;7.80;;
65658;SDS011;60181;53.258;6.932;2023-06-14T19:52:30;13.00;;;7.80;;
65658;SDS011;60181;53.258;6.932;2023-06-14T19:56:34;13.00;;;7.80;;
65658;SDS011;60181;53.258;6.932;2023-06-14T20:00:38;17.00;;;9.70;;
65658;SDS011;60181;53.258;6.932;2023-06-14T20:04:42;17.00;;;9.70;;
65658;SDS011;60181;53.258;6.932;2023-06-14T20:08:46;14.50;;;9.20;;
65658;SDS011;60181;53.258;6.932;2023-06-14T20:12:50;14.50;;;9.20;;
65658;SDS011;60181;53.258;6.932;2023-06-14T20:16:54;14.50;;;9.20;;
65658;SDS011;60181;53.258;6.932;2023-06-14T20:20:58;14.80;;;9.20;;
65658;SDS011;60181;53.258;6.932;2023-06-14T20:25:02;14.80;;;9.20;;
65658;SDS011;60181;53.258;6.932;2023-06-14T20:29:06;14.80;;;9.20;;
65658;SDS011;60181;53.258;6.932;2023-06-14T20:33:10;14.80;;;9.20;;
65658;SDS011;60181;53.258;6.932;2023-06-14T20:37:14;14.80;;;9.20;;
65658;SDS011;60181;53.258;6.932;2023-06-14T20:41:18;14.40;;;8.90;;
65658;SDS011;60181;53.258;6.932;2023-06-14T20:45:22;14.40;;;8.90;;
65658;SDS011;60181;53.258;6.932;2023-06-14T20:49:26;14.50;;;8.90;;
65658;SDS011;60181;53.258;6.932;2023-06-14T20:53:30;14.50;;;8.90;;
65658;SDS011;60181;53.258;6.932;2023-06-14T20:57:34;15.50;;;9.10;;
65658;SDS011;60181;53.258;6.932;2023-06-14T21:01:38;15.50;;;9.10;;
65658;SDS011;60181;53.258;6.932;2023-06-14T21:05:42;15.50;;;9.10;;
65658;SDS011;60181;53.258;6.932;2023-06-14T21:09:46;15.00;;;9.60;;
65658;SDS011;60181;53.258;6.932;2023-06-14T21:13:51;15.00;;;9.60;;
65658;SDS011;60181;53.258;6.932;2023-06-14T21:17:54;15.00;;;9.60;;
65658;SDS011;60181;53.258;6.932;2023-06-14T21:21:58;15.00;;;9.60;;
65658;SDS011;60181;53.258;6.932;2023-06-14T21:26:02;15.00;;;9.60;;
65658;SDS011;60181;53.258;6.932;2023-06-14T21:30:06;17.60;;;10.80;;
65658;SDS011;60181;53.258;6.932;2023-06-14T21:34:10;17.60;;;10.80;;
65658;SDS011;60181;53.258;6.932;2023-06-14T21:38:14;19.60;;;11.30;;
65658;SDS011;60181;53.258;6.932;2023-06-14T21:42:18;19.60;;;11.30;;
65658;SDS011;60181;53.258;6.932;2023-06-14T21:46:22;19.60;;;11.30;;
65658;SDS011;60181;53.258;6.932;2023-06-14T21:50:26;19.70;;;11.30;;
65658;SDS011;60181;53.258;6.932;2023-06-14T21:54:30;19.70;;;11.30;;
65658;SDS011;60181;53.258;6.932;2023-06-14T21:58:34;18.40;;;11.20;;
65658;SDS011;60181;53.258;6.932;2023-06-14T22:02:38;18.40;;;11.20;;
65658;SDS011;60181;53.258;6.932;2023-06-14T22:06:42;18.40;;;11.20;;
65658;SDS011;60181;53.258;6.932;2023-06-14T22:10:46;17.20;;;11.00;;
65658;SDS011;60181;53.258;6.932;2023-06-14T22:14:50;17.20;;;11.00;;
65658;SDS011;60181;53.258;6.932;2023-06-14T22:18:54;19.30;;;11.60;;
65658;SDS011;60181;53.258;6.932;2023-06-14T22:22:58;19.30;;;11.60;;
65658;SDS011;60181;53.258;6.932;2023-06-14T22:27:02;19.30;;;11.60;;
65658;SDS011;60181;53.258;6.932;2023-06-14T22:31:06;18.40;;;11.30;;
65658;SDS011;60181;53.258;6.932;2023-06-14T22:35:10;18.40;;;11.30;;
65658;SDS011;60181;53.258;6.932;2023-06-14T22:39:14;20.40;;;11.40;;
65658;SDS011;60181;53.258;6.932;2023-06-14T22:43:18;20.40;;;11.40;;
65658;SDS011;60181;53.258;6.932;2023-06-14T22:47:22;20.40;;;11.40;;
65658;SDS011;60181;53.258;6.932;2023-06-14T22:51:26;18.90;;;11.50;;
65658;SDS011;60181;53.258;6.932;2023-06-14T22:55:30;18.90;;;11.50;;
65658;SDS011;60181;53.258;6.932;2023-06-14T22:59:34;18.20;;;11.10;;
65658;SDS011;60181;53.258;6.932;2023-06-14T23:03:37;18.20;;;11.10;;
65658;SDS011;60181;53.258;6.932;2023-06-14T23:07:41;18.30;;;11.10;;
65658;SDS011;60181;53.258;6.932;2023-06-14T23:11:46;18.30;;;11.10;;
65658;SDS011;60181;53.258;6.932;2023-06-14T23:15:49;18.30;;;11.10;;
65658;SDS011;60181;53.258;6.932;2023-06-14T23:19:53;18.70;;;11.00;;
65658;SDS011;60181;53.258;6.932;2023-06-14T23:23:57;18.70;;;11.00;;
65658;SDS011;60181;53.258;6.932;2023-06-14T23:28:04;17.20;;;10.90;;
65658;SDS011;60181;53.258;6.932;2023-06-14T23:32:06;17.20;;;10.90;;
65658;SDS011;60181;53.258;6.932;2023-06-14T23:36:09;17.20;;;10.90;;
65658;SDS011;60181;53.258;6.932;2023-06-14T23:40:13;17.80;;;10.60;;
65658;SDS011;60181;53.258;6.932;2023-06-14T23:44:17;17.80;;;10.60;;
65658;SDS011;60181;53.258;6.932;2023-06-14T23:48:22;17.40;;;10.30;;
65658;SDS011;60181;53.258;6.932;2023-06-14T23:52:28;17.40;;;10.30;;
65658;SDS011;60181;53.258;6.932;2023-06-14T23:56:29;17.40;;;10.30;;
